sensor_id;sensor_type;location;lat;lon;timestamp;pressure;altitude;pressure_sealevel;temperature;humidity
52535;BME280;38443;53.164;5.802;2023-10-08T00:01:08;102584.75;;;12.30;100.00
52535;BME280;38443;53.164;5.802;2023-10-08T00:03:36;102614.28;;;12.30;100.00
52535;BME280;38443;53.164;5.802;2023-10-08T00:06:03;102625.06;;;12.25;100.00
52535;BME280;38443;53.164;5.802;2023-10-08T00:08:33;102621.47;;;12.25;100.00
52535;BME280;38443;53.164;5.802;2023-10-08T00:10:58;102608.03;;;12.26;100.00
52535;BME280;38443;53.164;5.802;2023-10-08T00:13:31;102596.44;;;12.26;100.00
52535;BME280;38443;53.164;5.802;2023-10-08T00:15:57;102600.03;;;12.23;100.00
52535;BME280;38443;53.164;5.802;2023-10-08T00:18:22;102616.16;;;12.20;100.00
52535;BME280;38443;53.164;5.802;2023-10-08T00:20:49;102626.00;;;12.20;100.00
52535;BME280;38443;53.164;5.802;2023-10-08T00:23:41;102581.25;;;12.18;100.00
52535;BME280;38443;53.164;5.802;2023-10-08T00:26:36;102597.34;;;12.22;100.00
52535;BME280;38443;53.164;5.802;2023-10-08T00:29:06;102549.03;;;12.20;100.00
52535;BME280;38443;53.164;5.802;2023-10-08T00:31:44;102591.09;;;12.21;100.00
52535;BME280;38443;53.164;5.802;2023-10-08T00:34:14;102626.91;;;12.18;100.00
52535;BME280;38443;53.164;5.802;2023-10-08T00:36:44;102590.22;;;12.17;100.00
52535;BME280;38443;53.164;5.802;2023-10-08T00:39:12;102587.53;;;12.17;100.00
52535;BME280;38443;53.164;5.802;2023-10-08T00:41:45;102605.47;;;12.14;100.00
52535;BME280;38443;53.164;5.802;2023-10-08T00:44:12;102623.38;;;12.10;100.00
52535;BME280;38443;53.164;5.802;2023-10-08T00:46:41;102609.06;;;12.10;100.00
52535;BME280;38443;53.164;5.802;2023-10-08T00:49:15;102616.25;;;12.08;100.00
52535;BME280;38443;53.164;5.802;2023-10-08T00:51:47;102653.88;;;12.05;100.00
52535;BME280;38443;53.164;5.802;2023-10-08T00:54:14;102654.75;;;12.04;100.00
52535;BME280;38443;53.164;5.802;2023-10-08T00:56:45;102637.75;;;12.05;100.00
52535;BME280;38443;53.164;5.802;2023-10-08T00:59:26;102605.56;;;12.03;100.00
52535;BME280;38443;53.164;5.802;2023-10-08T01:01:52;102592.09;;;12.06;100.00
52535;BME280;38443;53.164;5.802;2023-10-08T01:04:24;102623.41;;;12.04;100.00
52535;BME280;38443;53.164;5.802;2023-10-08T01:06:54;102630.59;;;12.04;100.00
52535;BME280;38443;53.164;5.802;2023-10-08T01:09:24;102649.38;;;12.05;100.00
52535;BME280;38443;53.164;5.802;2023-10-08T01:12:14;102644.00;;;12.05;100.00
52535;BME280;38443;53.164;5.802;2023-10-08T01:14:42;102632.34;;;12.06;100.00
52535;BME280;38443;53.164;5.802;2023-10-08T01:17:12;102644.88;;;12.07;100.00
52535;BME280;38443;53.164;5.802;2023-10-08T01:19:40;102659.19;;;12.06;100.00
52535;BME280;38443;53.164;5.802;2023-10-08T01:22:07;102669.03;;;12.07;100.00
52535;BME280;38443;53.164;5.802;2023-10-08T01:24:35;102676.19;;;12.08;100.00
52535;BME280;38443;53.164;5.802;2023-10-08T01:27:01;102682.47;;;12.09;100.00
52535;BME280;38443;53.164;5.802;2023-10-08T01:29:30;102686.91;;;12.08;100.00
52535;BME280;38443;53.164;5.802;2023-10-08T01:31:57;102684.22;;;12.10;100.00
52535;BME280;38443;53.164;5.802;2023-10-08T01:34:22;102696.72;;;12.12;100.00
52535;BME280;38443;53.164;5.802;2023-10-08T01:36:56;102685.09;;;12.15;100.00
52535;BME280;38443;53.164;5.802;2023-10-08T01:39:27;102681.50;;;12.16;100.00
52535;BME280;38443;53.164;5.802;2023-10-08T01:41:52;102680.59;;;12.20;100.00
52535;BME280;38443;53.164;5.802;2023-10-08T01:44:17;102666.25;;;12.23;100.00
52535;BME280;38443;53.164;5.802;2023-10-08T01:46:43;102658.19;;;12.26;100.00
52535;BME280;38443;53.164;5.802;2023-10-08T01:49:08;102665.34;;;12.27;100.00
52535;BME280;38443;53.164;5.802;2023-10-08T01:51:39;102660.84;;;12.27;100.00
52535;BME280;38443;53.164;5.802;2023-10-08T01:54:11;102663.53;;;12.29;100.00
52535;BME280;38443;53.164;5.802;2023-10-08T01:56:41;102668.00;;;12.30;100.00
52535;BME280;38443;53.164;5.802;2023-10-08T01:59:10;102668.00;;;12.28;100.00
52535;BME280;38443;53.164;5.802;2023-10-08T02:01:38;102671.56;;;12.30;100.00
52535;BME280;38443;53.164;5.802;2023-10-08T02:04:05;102674.25;;;12.35;100.00
52535;BME280;38443;53.164;5.802;2023-10-08T02:06:35;102667.06;;;12.37;100.00
52535;BME280;38443;53.164;5.802;2023-10-08T02:09:01;102667.94;;;12.36;100.00
52535;BME280;38443;53.164;5.802;2023-10-08T02:11:46;102669.75;;;12.35;100.00
52535;BME280;38443;53.164;5.802;2023-10-08T02:14:15;102669.75;;;12.37;100.00
52535;BME280;38443;53.164;5.802;2023-10-08T02:16:42;102669.69;;;12.40;100.00
52535;BME280;38443;53.164;5.802;2023-10-08T02:19:08;102659.84;;;12.42;100.00
52535;BME280;38443;53.164;5.802;2023-10-08T02:21:36;102668.78;;;12.44;100.00
52535;BME280;38443;53.164;5.802;2023-10-08T02:24:03;102673.25;;;12.44;100.00
52535;BME280;38443;53.164;5.802;2023-10-08T02:26:29;102682.19;;;12.44;100.00
52535;BME280;38443;53.164;5.802;2023-10-08T02:28:54;102691.16;;;12.45;100.00
52535;BME280;38443;53.164;5.802;2023-10-08T02:31:20;102682.25;;;12.41;100.00
52535;BME280;38443;53.164;5.802;2023-10-08T02:33:45;102683.13;;;12.42;100.00
52535;BME280;38443;53.164;5.802;2023-10-08T02:36:10;102684.94;;;12.41;100.00
52535;BME280;38443;53.164;5.802;2023-10-08T02:38:35;102695.63;;;12.43;100.00
52535;BME280;38443;53.164;5.802;2023-10-08T02:41:03;102685.81;;;12.43;100.00
52535;BME280;38443;53.164;5.802;2023-10-08T02:43:34;102683.09;;;12.45;100.00
52535;BME280;38443;53.164;5.802;2023-10-08T02:46:02;102683.09;;;12.46;100.00
52535;BME280;38443;53.164;5.802;2023-10-08T02:48:27;102685.75;;;12.46;100.00
52535;BME280;38443;53.164;5.802;2023-10-08T02:50:52;102702.81;;;12.45;100.00
52535;BME280;38443;53.164;5.802;2023-10-08T02:53:19;102707.28;;;12.43;100.00
52535;BME280;38443;53.164;5.802;2023-10-08T02:55:48;102689.38;;;12.44;100.00
52535;BME280;38443;53.164;5.802;2023-10-08T02:58:15;102683.13;;;12.43;100.00
52535;BME280;38443;53.164;5.802;2023-10-08T03:00:50;102659.88;;;12.39;100.00
52535;BME280;38443;53.164;5.802;2023-10-08T03:03:18;102667.94;;;12.39;100.00
52535;BME280;38443;53.164;5.802;2023-10-08T03:05:46;102669.69;;;12.40;100.00
52535;BME280;38443;53.164;5.802;2023-10-08T03:08:13;102679.56;;;12.40;100.00
52535;BME280;38443;53.164;5.802;2023-10-08T03:10:44;102700.16;;;12.37;100.00
52535;BME280;38443;53.164;5.802;2023-10-08T03:13:09;102696.59;;;12.37;100.00
52535;BME280;38443;53.164;5.802;2023-10-08T03:15:38;102702.84;;;12.39;100.00
52535;BME280;38443;53.164;5.802;2023-10-08T03:18:06;102693.88;;;12.40;100.00
52535;BME280;38443;53.164;5.802;2023-10-08T03:20:41;102701.94;;;12.42;100.00
52535;BME280;38443;53.164;5.802;2023-10-08T03:23:15;102710.91;;;12.39;100.00
52535;BME280;38443;53.164;5.802;2023-10-08T03:26:00;102718.09;;;12.37;100.00
52535;BME280;38443;53.164;5.802;2023-10-08T03:28:34;102734.19;;;12.34;100.00
52535;BME280;38443;53.164;5.802;2023-10-08T03:31:00;102733.31;;;12.32;100.00
52535;BME280;38443;53.164;5.802;2023-10-08T03:33:39;102730.63;;;12.30;100.00
52535;BME280;38443;53.164;5.802;2023-10-08T03:36:05;102733.34;;;12.29;100.00
52535;BME280;38443;53.164;5.802;2023-10-08T03:38:46;102755.72;;;12.29;100.00
52535;BME280;38443;53.164;5.802;2023-10-08T03:41:21;102764.66;;;12.28;100.00
52535;BME280;38443;53.164;5.802;2023-10-08T03:43:52;102775.44;;;12.27;100.00
52535;BME280;38443;53.164;5.802;2023-10-08T03:46:21;102775.44;;;12.24;100.00
52535;BME280;38443;53.164;5.802;2023-10-08T03:48:49;102781.69;;;12.23;100.00
52535;BME280;38443;53.164;5.802;2023-10-08T03:51:17;102775.44;;;12.22;100.00
52535;BME280;38443;53.164;5.802;2023-10-08T03:53:45;102781.72;;;12.21;100.00
52535;BME280;38443;53.164;5.802;2023-10-08T03:56:37;102789.75;;;12.23;100.00
52535;BME280;38443;53.164;5.802;2023-10-08T03:59:03;102781.69;;;12.23;100.00
52535;BME280;38443;53.164;5.802;2023-10-08T04:01:41;102783.47;;;12.21;100.00
52535;BME280;38443;53.164;5.802;2023-10-08T04:04:06;102782.59;;;12.23;100.00
52535;BME280;38443;53.164;5.802;2023-10-08T04:06:37;102784.38;;;12.26;100.00
52535;BME280;38443;53.164;5.802;2023-10-08T04:09:04;102774.50;;;12.26;100.00
52535;BME280;38443;53.164;5.802;2023-10-08T04:11:41;102782.56;;;12.26;100.00
52535;BME280;38443;53.164;5.802;2023-10-08T04:14:19;102785.25;;;12.28;100.00
52535;BME280;38443;53.164;5.802;2023-10-08T04:16:45;102796.88;;;12.30;100.00
52535;BME280;38443;53.164;5.802;2023-10-08T04:19:11;102807.63;;;12.28;100.00
52535;BME280;38443;53.164;5.802;2023-10-08T04:21:38;102812.09;;;12.28;100.00
52535;BME280;38443;53.164;5.802;2023-10-08T04:24:05;102817.47;;;12.26;100.00
52535;BME280;38443;53.164;5.802;2023-10-08T04:26:31;102801.38;;;12.26;100.00
52535;BME280;38443;53.164;5.802;2023-10-08T04:28:59;102809.41;;;12.26;100.00
52535;BME280;38443;53.164;5.802;2023-10-08T04:31:28;102821.06;;;12.25;100.00
52535;BME280;38443;53.164;5.802;2023-10-08T04:34:03;102820.19;;;12.22;100.00
52535;BME280;38443;53.164;5.802;2023-10-08T04:36:40;102819.31;;;12.20;100.00
52535;BME280;38443;53.164;5.802;2023-10-08T04:39:05;102811.25;;;12.18;100.00
52535;BME280;38443;53.164;5.802;2023-10-08T04:41:41;102788.88;;;12.17;100.00
52535;BME280;38443;53.164;5.802;2023-10-08T04:44:10;102806.75;;;12.18;100.00
52535;BME280;38443;53.164;5.802;2023-10-08T04:46:43;102803.19;;;12.18;100.00
52535;BME280;38443;53.164;5.802;2023-10-08T04:49:12;102805.00;;;12.17;100.00
52535;BME280;38443;53.164;5.802;2023-10-08T04:52:14;102794.25;;;12.16;100.00
52535;BME280;38443;53.164;5.802;2023-10-08T04:54:42;102788.00;;;12.17;100.00
52535;BME280;38443;53.164;5.802;2023-10-08T04:57:17;102796.06;;;12.15;100.00
52535;BME280;38443;53.164;5.802;2023-10-08T04:59:42;102789.78;;;12.16;100.00
52535;BME280;38443;53.164;5.802;2023-10-08T05:02:09;102791.56;;;12.17;100.00
52535;BME280;38443;53.164;5.802;2023-10-08T05:04:43;102783.53;;;12.16;100.00
52535;BME280;38443;53.164;5.802;2023-10-08T05:07:11;102787.13;;;12.15;100.00
52535;BME280;38443;53.164;5.802;2023-10-08T05:09:46;102793.38;;;12.17;100.00
52535;BME280;38443;53.164;5.802;2023-10-08T05:12:17;102805.88;;;12.18;100.00
52535;BME280;38443;53.164;5.802;2023-10-08T05:14:57;102816.66;;;12.15;100.00
52535;BME280;38443;53.164;5.802;2023-10-08T05:17:43;102811.28;;;12.13;100.00
52535;BME280;38443;53.164;5.802;2023-10-08T05:20:23;102810.41;;;12.13;100.00
52535;BME280;38443;53.164;5.802;2023-10-08T05:23:13;102812.16;;;12.12;100.00
52535;BME280;38443;53.164;5.802;2023-10-08T05:25:56;102807.72;;;12.11;100.00
52535;BME280;38443;53.164;5.802;2023-10-08T05:28:35;102801.41;;;12.12;100.00
52535;BME280;38443;53.164;5.802;2023-10-08T05:31:08;102786.22;;;12.13;100.00
52535;BME280;38443;53.164;5.802;2023-10-08T05:33:47;102788.91;;;12.11;100.00
52535;BME280;38443;53.164;5.802;2023-10-08T05:36:31;102813.97;;;12.10;100.00
52535;BME280;38443;53.164;5.802;2023-10-08T05:39:15;102817.56;;;12.08;100.00
52535;BME280;38443;53.164;5.802;2023-10-08T05:41:50;102833.66;;;12.08;100.00
52535;BME280;38443;53.164;5.802;2023-10-08T05:44:31;102826.53;;;12.07;100.00
52535;BME280;38443;53.164;5.802;2023-10-08T05:47:06;102826.50;;;12.10;100.00
52535;BME280;38443;53.164;5.802;2023-10-08T05:49:50;102810.38;;;12.10;100.00
52535;BME280;38443;53.164;5.802;2023-10-08T05:52:34;102806.78;;;12.12;100.00
52535;BME280;38443;53.164;5.802;2023-10-08T05:55:19;102803.22;;;12.12;100.00
52535;BME280;38443;53.164;5.802;2023-10-08T05:58:04;102809.47;;;12.12;100.00
52535;BME280;38443;53.164;5.802;2023-10-08T06:00:43;102833.66;;;12.09;100.00
52535;BME280;38443;53.164;5.802;2023-10-08T06:03:16;102852.44;;;12.08;100.00
52535;BME280;38443;53.164;5.802;2023-10-08T06:06:02;102846.19;;;12.07;100.00
52535;BME280;38443;53.164;5.802;2023-10-08T06:08:36;102851.56;;;12.06;100.00
52535;BME280;38443;53.164;5.802;2023-10-08T06:11:29;102854.25;;;12.07;100.00
52535;BME280;38443;53.164;5.802;2023-10-08T06:14:21;102859.63;;;12.04;100.00
52535;BME280;38443;53.164;5.802;2023-10-08T06:17:18;102875.72;;;12.04;100.00
52535;BME280;38443;53.164;5.802;2023-10-08T06:20:02;102867.66;;;12.04;100.00
52535;BME280;38443;53.164;5.802;2023-10-08T06:22:35;102872.16;;;12.04;100.00
52535;BME280;38443;53.164;5.802;2023-10-08T06:25:01;102848.88;;;12.04;100.00
52535;BME280;38443;53.164;5.802;2023-10-08T06:27:42;102845.31;;;12.02;100.00
52535;BME280;38443;53.164;5.802;2023-10-08T06:30:12;102848.88;;;12.04;100.00
52535;BME280;38443;53.164;5.802;2023-10-08T06:32:43;102850.69;;;12.04;100.00
52535;BME280;38443;53.164;5.802;2023-10-08T06:35:09;102844.44;;;12.05;100.00
52535;BME280;38443;53.164;5.802;2023-10-08T06:37:43;102823.84;;;12.05;100.00
52535;BME280;38443;53.164;5.802;2023-10-08T06:40:08;102813.09;;;12.07;100.00
52535;BME280;38443;53.164;5.802;2023-10-08T06:42:54;102802.38;;;12.05;100.00
52535;BME280;38443;53.164;5.802;2023-10-08T06:45:22;102807.72;;;12.05;100.00
52535;BME280;38443;53.164;5.802;2023-10-08T06:47:47;102819.34;;;12.04;100.00
52535;BME280;38443;53.164;5.802;2023-10-08T06:50:15;102847.09;;;12.03;100.00
52535;BME280;38443;53.164;5.802;2023-10-08T06:52:41;102855.16;;;12.02;100.00
52535;BME280;38443;53.164;5.802;2023-10-08T06:55:09;102875.72;;;12.03;100.00
52535;BME280;38443;53.164;5.802;2023-10-08T06:57:37;102887.38;;;12.05;100.00
52535;BME280;38443;53.164;5.802;2023-10-08T07:00:04;102900.78;;;12.08;100.00
52535;BME280;38443;53.164;5.802;2023-10-08T07:02:37;102889.13;;;12.13;100.00
52535;BME280;38443;53.164;5.802;2023-10-08T07:05:05;102874.78;;;12.21;100.00
52535;BME280;38443;53.164;5.802;2023-10-08T07:07:34;102894.47;;;12.29;100.00
52535;BME280;38443;53.164;5.802;2023-10-08T07:10:05;102899.81;;;12.33;100.00
52535;BME280;38443;53.164;5.802;2023-10-08T07:12:36;102889.94;;;12.40;100.00
52535;BME280;38443;53.164;5.802;2023-10-08T07:15:01;102862.16;;;12.44;100.00
52535;BME280;38443;53.164;5.802;2023-10-08T07:17:29;102878.28;;;12.49;100.00
52535;BME280;38443;53.164;5.802;2023-10-08T07:20:06;102884.50;;;12.52;100.00
52535;BME280;38443;53.164;5.802;2023-10-08T07:22:38;102885.38;;;12.54;100.00
52535;BME280;38443;53.164;5.802;2023-10-08T07:25:04;102878.22;;;12.56;100.00
52535;BME280;38443;53.164;5.802;2023-10-08T07:27:33;102871.06;;;12.55;100.00
52535;BME280;38443;53.164;5.802;2023-10-08T07:30:03;102834.34;;;12.57;100.00
52535;BME280;38443;53.164;5.802;2023-10-08T07:32:35;102791.34;;;12.54;100.00
52535;BME280;38443;53.164;5.802;2023-10-08T07:35:04;102782.38;;;12.58;100.00
52535;BME280;38443;53.164;5.802;2023-10-08T07:37:49;102853.94;;;12.75;100.00
52535;BME280;38443;53.164;5.802;2023-10-08T07:40:16;102867.31;;;12.84;100.00
52535;BME280;38443;53.164;5.802;2023-10-08T07:42:42;102852.03;;;12.92;100.00
52535;BME280;38443;53.164;5.802;2023-10-08T07:45:09;102839.19;;;13.34;100.00
52535;BME280;38443;53.164;5.802;2023-10-08T07:47:34;102818.19;;;13.73;100.00
52535;BME280;38443;53.164;5.802;2023-10-08T07:50:00;102841.13;;;14.08;100.00
52535;BME280;38443;53.164;5.802;2023-10-08T07:52:25;102866.38;;;14.71;100.00
52535;BME280;38443;53.164;5.802;2023-10-08T07:54:50;102910.63;;;15.20;100.00
52535;BME280;38443;53.164;5.802;2023-10-08T07:57:16;102918.69;;;15.21;100.00
52535;BME280;38443;53.164;5.802;2023-10-08T07:59:51;102914.44;;;15.05;100.00
52535;BME280;38443;53.164;5.802;2023-10-08T08:02:20;102921.94;;;14.83;100.00
52535;BME280;38443;53.164;5.802;2023-10-08T08:04:51;102928.53;;;14.60;100.00
52535;BME280;38443;53.164;5.802;2023-10-08T08:07:17;102941.34;;;14.35;100.00
52535;BME280;38443;53.164;5.802;2023-10-08T08:09:44;102951.50;;;14.11;100.00
52535;BME280;38443;53.164;5.802;2023-10-08T08:12:20;102950.78;;;13.91;100.00
52535;BME280;38443;53.164;5.802;2023-10-08T08:14:47;102949.81;;;14.01;100.00
52535;BME280;38443;53.164;5.802;2023-10-08T08:17:13;102935.44;;;13.99;100.00
52535;BME280;38443;53.164;5.802;2023-10-08T08:19:43;102923.81;;;13.97;100.00
52535;BME280;38443;53.164;5.802;2023-10-08T08:22:16;102922.91;;;13.98;100.00
52535;BME280;38443;53.164;5.802;2023-10-08T08:24:53;102923.94;;;13.85;100.00
52535;BME280;38443;53.164;5.802;2023-10-08T08:27:20;102921.25;;;13.85;100.00
52535;BME280;38443;53.164;5.802;2023-10-08T08:29:53;102927.53;;;13.85;100.00
52535;BME280;38443;53.164;5.802;2023-10-08T08:32:22;102938.28;;;13.87;100.00
52535;BME280;38443;53.164;5.802;2023-10-08T08:34:48;102938.31;;;13.84;100.00
52535;BME280;38443;53.164;5.802;2023-10-08T08:37:19;102934.75;;;13.79;100.00
52535;BME280;38443;53.164;5.802;2023-10-08T08:39:48;102924.00;;;13.79;100.00
52535;BME280;38443;53.164;5.802;2023-10-08T08:42:13;102919.56;;;13.73;100.00
52535;BME280;38443;53.164;5.802;2023-10-08T08:44:42;102924.09;;;13.69;100.00
52535;BME280;38443;53.164;5.802;2023-10-08T08:47:15;102915.09;;;13.69;100.00
52535;BME280;38443;53.164;5.802;2023-10-08T08:49:44;102911.41;;;13.81;100.00
52535;BME280;38443;53.164;5.802;2023-10-08T08:52:13;102901.44;;;13.93;100.00
52535;BME280;38443;53.164;5.802;2023-10-08T08:54:39;102899.53;;;14.03;100.00
52535;BME280;38443;53.164;5.802;2023-10-08T08:57:05;102888.63;;;14.14;100.00
52535;BME280;38443;53.164;5.802;2023-10-08T08:59:32;102875.16;;;14.15;100.00
52535;BME280;38443;53.164;5.802;2023-10-08T09:02:02;102875.19;;;14.11;100.00
52535;BME280;38443;53.164;5.802;2023-10-08T09:04:32;102889.53;;;14.14;100.00
52535;BME280;38443;53.164;5.802;2023-10-08T09:07:01;102877.72;;;14.25;100.00
52535;BME280;38443;53.164;5.802;2023-10-08T09:09:33;102862.34;;;14.33;100.00
52535;BME280;38443;53.164;5.802;2023-10-08T09:11:59;102852.34;;;14.44;100.00
52535;BME280;38443;53.164;5.802;2023-10-08T09:14:26;102853.13;;;14.52;100.00
52535;BME280;38443;53.164;5.802;2023-10-08T09:16:52;102842.31;;;14.57;100.00
52535;BME280;38443;53.164;5.802;2023-10-08T09:19:19;102846.81;;;14.58;100.00
52535;BME280;38443;53.164;5.802;2023-10-08T09:22:04;102857.59;;;14.58;100.00
52535;BME280;38443;53.164;5.802;2023-10-08T09:24:31;102849.44;;;14.63;100.00
52535;BME280;38443;53.164;5.802;2023-10-08T09:26:59;102851.25;;;14.59;100.00
52535;BME280;38443;53.164;5.802;2023-10-08T09:29:24;102864.78;;;14.58;100.00
52535;BME280;38443;53.164;5.802;2023-10-08T09:32:00;102880.97;;;14.53;100.00
52535;BME280;38443;53.164;5.802;2023-10-08T09:34:28;102874.66;;;14.55;100.00
52535;BME280;38443;53.164;5.802;2023-10-08T09:36:55;102877.34;;;14.57;100.00
52535;BME280;38443;53.164;5.802;2023-10-08T09:39:21;102874.56;;;14.63;100.00
52535;BME280;38443;53.164;5.802;2023-10-08T09:41:53;102880.03;;;14.59;100.00
52535;BME280;38443;53.164;5.802;2023-10-08T09:44:19;102889.94;;;14.58;100.00
52535;BME280;38443;53.164;5.802;2023-10-08T09:46:48;102880.97;;;14.58;100.00
52535;BME280;38443;53.164;5.802;2023-10-08T09:49:24;102863.97;;;14.48;100.00
52535;BME280;38443;53.164;5.802;2023-10-08T09:51:52;102864.84;;;14.50;100.00
52535;BME280;38443;53.164;5.802;2023-10-08T09:54:24;102865.69;;;14.56;100.00
52535;BME280;38443;53.164;5.802;2023-10-08T09:56:53;102861.00;;;14.71;100.00
52535;BME280;38443;53.164;5.802;2023-10-08T09:59:20;102862.63;;;14.81;100.00
52535;BME280;38443;53.164;5.802;2023-10-08T10:01:47;102860.59;;;14.97;100.00
52535;BME280;38443;53.164;5.802;2023-10-08T10:04:23;102844.41;;;14.99;100.00
52535;BME280;38443;53.164;5.802;2023-10-08T10:06:49;102844.28;;;15.08;100.00
52535;BME280;38443;53.164;5.802;2023-10-08T10:09:20;102843.34;;;15.09;100.00
52535;BME280;38443;53.164;5.802;2023-10-08T10:11:51;102827.31;;;15.00;100.00
52535;BME280;38443;53.164;5.802;2023-10-08T10:14:18;102824.63;;;15.00;100.00
52535;BME280;38443;53.164;5.802;2023-10-08T10:17:11;102823.88;;;14.90;100.00
52535;BME280;38443;53.164;5.802;2023-10-08T10:19:37;102825.53;;;14.97;100.00
52535;BME280;38443;53.164;5.802;2023-10-08T10:22:03;102834.56;;;14.96;100.00
52535;BME280;38443;53.164;5.802;2023-10-08T10:24:36;102829.25;;;14.91;100.00
52535;BME280;38443;53.164;5.802;2023-10-08T10:27:15;102841.72;;;14.99;100.00
52535;BME280;38443;53.164;5.802;2023-10-08T10:29:42;102850.56;;;15.07;100.00
52535;BME280;38443;53.164;5.802;2023-10-08T10:32:13;102862.22;;;15.09;100.00
52535;BME280;38443;53.164;5.802;2023-10-08T10:34:43;102864.88;;;15.12;100.00
52535;BME280;38443;53.164;5.802;2023-10-08T10:37:09;102850.44;;;15.14;100.00
52535;BME280;38443;53.164;5.802;2023-10-08T10:39:53;102836.94;;;15.18;100.00
52535;BME280;38443;53.164;5.802;2023-10-08T10:42:21;102830.50;;;15.23;100.00
52535;BME280;38443;53.164;5.802;2023-10-08T10:44:48;102826.09;;;15.19;100.00
52535;BME280;38443;53.164;5.802;2023-10-08T10:47:18;102815.38;;;15.14;100.00
52535;BME280;38443;53.164;5.802;2023-10-08T10:49:50;102812.66;;;15.16;100.00
52535;BME280;38443;53.164;5.802;2023-10-08T10:52:27;102802.63;;;15.26;100.00
52535;BME280;38443;53.164;5.802;2023-10-08T10:55:17;102806.94;;;15.34;100.00
52535;BME280;38443;53.164;5.802;2023-10-08T10:57:50;102808.69;;;15.37;100.00
52535;BME280;38443;53.164;5.802;2023-10-08T11:00:29;102810.50;;;15.38;100.00
52535;BME280;38443;53.164;5.802;2023-10-08T11:02:59;102807.06;;;15.28;100.00
52535;BME280;38443;53.164;5.802;2023-10-08T11:05:31;102811.59;;;15.26;100.00
52535;BME280;38443;53.164;5.802;2023-10-08T11:07:59;102803.59;;;15.20;100.00
52535;BME280;38443;53.164;5.802;2023-10-08T11:10:35;102806.22;;;15.23;100.00
52535;BME280;38443;53.164;5.802;2023-10-08T11:13:05;102816.84;;;15.34;100.00
52535;BME280;38443;53.164;5.802;2023-10-08T11:15:39;102818.50;;;15.41;100.00
52535;BME280;38443;53.164;5.802;2023-10-08T11:18:12;102817.50;;;15.47;100.00
52535;BME280;38443;53.164;5.802;2023-10-08T11:20:43;102800.19;;;15.60;100.00
52535;BME280;38443;53.164;5.802;2023-10-08T11:23:37;102792.81;;;15.68;100.00
52535;BME280;38443;53.164;5.802;2023-10-08T11:26:07;102789.00;;;15.82;100.00
52535;BME280;38443;53.164;5.802;2023-10-08T11:28:33;102788.81;;;15.89;100.00
52535;BME280;38443;53.164;5.802;2023-10-08T11:31:06;102778.22;;;15.82;100.00
52535;BME280;38443;53.164;5.802;2023-10-08T11:33:38;102773.59;;;15.85;100.00
52535;BME280;38443;53.164;5.802;2023-10-08T11:36:08;102771.72;;;15.90;100.00
52535;BME280;38443;53.164;5.802;2023-10-08T11:38:44;102766.94;;;16.03;100.00
52535;BME280;38443;53.164;5.802;2023-10-08T11:41:14;102766.00;;;16.06;100.00
52535;BME280;38443;53.164;5.802;2023-10-08T11:43:49;102763.25;;;16.07;100.00
52535;BME280;38443;53.164;5.802;2023-10-08T11:46:20;102754.13;;;16.13;100.00
52535;BME280;38443;53.164;5.802;2023-10-08T11:48:45;102739.63;;;16.17;100.00
52535;BME280;38443;53.164;5.802;2023-10-08T11:51:12;102744.19;;;16.13;100.00
52535;BME280;38443;53.164;5.802;2023-10-08T11:53:42;102745.19;;;16.09;100.00
52535;BME280;38443;53.164;5.802;2023-10-08T11:56:09;102742.56;;;16.06;100.00
52535;BME280;38443;53.164;5.802;2023-10-08T11:58:41;102747.88;;;16.11;100.00
52535;BME280;38443;53.164;5.802;2023-10-08T12:01:11;102738.94;;;16.07;100.00
52535;BME280;38443;53.164;5.802;2023-10-08T12:03:46;102744.41;;;16.04;100.00
52535;BME280;38443;53.164;5.802;2023-10-08T12:06:15;102752.69;;;15.97;100.00
52535;BME280;38443;53.164;5.802;2023-10-08T12:08:45;102755.22;;;16.04;100.00
52535;BME280;38443;53.164;5.802;2023-10-08T12:11:14;102757.00;;;16.05;100.00
52535;BME280;38443;53.164;5.802;2023-10-08T12:13:41;102774.97;;;16.08;100.00
52535;BME280;38443;53.164;5.802;2023-10-08T12:16:14;102779.41;;;16.10;100.00
52535;BME280;38443;53.164;5.802;2023-10-08T12:18:47;102769.56;;;16.08;100.00
52535;BME280;38443;53.164;5.802;2023-10-08T12:21:22;102751.72;;;15.99;100.00
52535;BME280;38443;53.164;5.802;2023-10-08T12:23:50;102751.78;;;15.98;100.00
52535;BME280;38443;53.164;5.802;2023-10-08T12:26:17;102745.53;;;15.94;100.00
52535;BME280;38443;53.164;5.802;2023-10-08T12:28:45;102752.72;;;15.95;100.00
52535;BME280;38443;53.164;5.802;2023-10-08T12:31:21;102748.19;;;15.95;100.00
52535;BME280;38443;53.164;5.802;2023-10-08T12:33:52;102733.88;;;15.92;100.00
52535;BME280;38443;53.164;5.802;2023-10-08T12:36:26;102727.38;;;16.01;100.00
52535;BME280;38443;53.164;5.802;2023-10-08T12:38:52;102732.66;;;16.07;100.00
52535;BME280;38443;53.164;5.802;2023-10-08T12:41:24;102733.63;;;16.04;100.00
52535;BME280;38443;53.164;5.802;2023-10-08T12:43:52;102744.44;;;16.03;100.00
52535;BME280;38443;53.164;5.802;2023-10-08T12:46:18;102749.81;;;16.04;100.00
52535;BME280;38443;53.164;5.802;2023-10-08T12:48:45;102747.16;;;16.01;100.00
52535;BME280;38443;53.164;5.802;2023-10-08T12:51:14;102760.81;;;15.95;100.00
52535;BME280;38443;53.164;5.802;2023-10-08T12:53:39;102756.25;;;15.97;100.00
52535;BME280;38443;53.164;5.802;2023-10-08T12:56:07;102754.41;;;16.01;100.00
52535;BME280;38443;53.164;5.802;2023-10-08T12:58:40;102757.00;;;16.05;100.00
52535;BME280;38443;53.164;5.802;2023-10-08T13:01:17;102746.16;;;16.07;100.00